Time;durP1;ratioP1;P1;durP2;ratioP2;P2;SDS_P1;SDS_P2;PMS_P1;PMS_P2;Temp;Humidity;BMP_temperature;BMP_pressure;BME280_temperature;BME280_humidity;BME280_pressure;Samples;Min_cycle;Max_cycle;Signal;HPM_P1;HPM_P2
2022/04/19 00:00:53;;;;;;;5.95;3.42;;;5.80;79.70;;;;;;5021880;28;20087;-66
2022/04/19 00:03:20;;;;;;;6.97;3.72;;;5.70;80.30;;;;;;5019712;28;20334;-66
2022/04/19 00:05:46;;;;;;;7.93;4.03;;;5.70;80.20;;;;;;5019591;28;20021;-66
2022/04/19 00:08:14;;;;;;;7.10;3.28;;;5.70;80.20;;;;;;5023847;28;20037;-66
2022/04/19 00:10:41;;;;;;;6.45;3.50;;;5.70;80.90;;;;;;5022202;28;20441;-66
2022/04/19 00:13:08;;;;;;;6.78;3.80;;;5.50;81.40;;;;;;5022073;28;20500;-66
2022/04/19 00:15:35;;;;;;;7.25;3.50;;;5.50;80.00;;;;;;5025492;28;20060;-67
2022/04/19 00:18:02;;;;;;;6.00;3.70;;;5.60;79.90;;;;;;5023230;28;20030;-67
2022/04/19 00:20:29;;;;;;;6.10;3.78;;;5.60;80.10;;;;;;5016890;28;20041;-66
2022/04/19 00:22:57;;;;;;;6.20;3.95;;;5.70;79.80;;;;;;5020796;28;20052;-66
2022/04/19 00:25:24;;;;;;;6.88;3.70;;;5.70;79.30;;;;;;5024988;28;20310;-65
2022/04/19 00:27:50;;;;;;;7.03;3.65;;;5.60;80.00;;;;;;5021362;28;20104;-66
2022/04/19 00:30:15;;;;;;;6.22;3.65;;;5.60;80.00;;;;;;5017798;28;20080;-65
2022/04/19 00:32:41;;;;;;;8.20;3.78;;;5.50;80.30;;;;;;5020415;28;20411;-67
2022/04/19 00:35:09;;;;;;;8.48;3.55;;;5.40;80.30;;;;;;5019171;28;20033;-67
2022/04/19 00:37:36;;;;;;;5.60;3.40;;;5.30;81.20;;;;;;5016370;28;20042;-67
2022/04/19 00:40:03;;;;;;;7.43;3.50;;;5.20;82.00;;;;;;5018379;28;20030;-66
2022/04/19 00:42:30;;;;;;;6.38;3.90;;;5.00;83.50;;;;;;5018564;28;20034;-66
2022/04/19 00:44:57;;;;;;;5.55;3.40;;;4.90;82.70;;;;;;5023188;28;20327;-67
2022/04/19 00:47:22;;;;;;;6.28;3.33;;;4.90;83.00;;;;;;5025458;28;20079;-67
2022/04/19 00:49:48;;;;;;;5.28;3.00;;;4.80;83.80;;;;;;5021706;28;21571;-66
2022/04/19 00:52:15;;;;;;;6.22;3.50;;;4.70;84.50;;;;;;5022492;28;20469;-66
2022/04/19 00:54:41;;;;;;;6.18;3.45;;;4.60;85.00;;;;;;5023217;28;20029;-67
2022/04/19 00:57:16;;;;;;;7.75;4.05;;;4.40;86.10;;;;;;5020696;28;20070;-66
2022/04/19 00:59:43;;;;;;;6.90;3.80;;;4.30;86.20;;;;;;5023142;28;20637;-66
2022/04/19 01:02:09;;;;;;;6.70;3.72;;;4.30;86.00;;;;;;5021173;28;20040;-67
2022/04/19 01:04:35;;;;;;;7.20;4.10;;;4.30;85.70;;;;;;5016819;28;20105;-67
2022/04/19 01:07:01;;;;;;;6.55;3.95;;;4.40;85.20;;;;;;5020118;28;20026;-67
2022/04/19 01:09:27;;;;;;;6.07;3.55;;;4.40;85.50;;;;;;5020483;28;20426;-67
2022/04/19 01:14:37;;;;;;;7.57;3.75;;;4.30;85.60;;;;;;5025776;28;20067;-67
2022/04/19 01:17:06;;;;;;;5.18;3.22;;;4.20;86.50;;;;;;5020126;28;20026;-68
2022/04/19 01:19:34;;;;;;;6.70;3.50;;;4.10;86.90;;;;;;5020967;28;20030;-66
2022/04/19 01:22:01;;;;;;;6.95;3.85;;;4.20;85.60;;;;;;5025208;28;20411;-67
2022/04/19 01:24:27;;;;;;;7.90;3.72;;;4.30;85.70;;;;;;5016752;28;20026;-67
2022/04/19 01:26:57;;;;;;;6.93;4.10;;;4.40;84.90;;;;;;5024825;28;20018;-67
2022/04/19 01:29:24;;;;;;;9.07;3.63;;;4.40;85.30;;;;;;5021701;28;20444;-66
2022/04/19 01:31:52;;;;;;;6.18;3.40;;;4.40;84.70;;;;;;5020003;28;20033;-67
2022/04/19 01:34:21;;;;;;;6.55;3.90;;;4.40;85.60;;;;;;5017608;28;20084;-67
2022/04/19 01:36:46;;;;;;;5.40;3.22;;;4.40;85.40;;;;;;5020759;28;20048;-66
2022/04/19 01:39:12;;;;;;;6.10;3.85;;;4.30;85.40;;;;;;5021383;28;20037;-67
2022/04/19 01:41:39;;;;;;;6.85;3.97;;;4.20;85.60;;;;;;5014892;28;20030;-67
2022/04/19 01:44:06;;;;;;;6.22;3.80;;;4.20;85.50;;;;;;5021446;28;20022;-67
2022/04/19 01:46:32;;;;;;;5.82;3.65;;;4.10;86.00;;;;;;5016697;28;20018;-66
2022/04/19 01:48:59;;;;;;;6.90;3.83;;;3.90;86.60;;;;;;5018840;28;20329;-67
2022/04/19 01:51:25;;;;;;;7.40;3.72;;;3.90;86.70;;;;;;5014631;28;20029;-67
2022/04/19 01:53:51;;;;;;;6.10;3.65;;;3.80;87.20;;;;;;5017260;28;20045;-66
2022/04/19 01:56:17;;;;;;;6.53;3.72;;;3.90;87.00;;;;;;5020189;28;20433;-67
2022/04/19 01:58:44;;;;;;;7.25;4.05;;;4.00;86.50;;;;;;5018039;28;20350;-67
2022/04/19 02:01:10;;;;;;;4.95;3.20;;;4.20;85.20;;;;;;5021028;28;20092;-67
2022/04/19 02:03:36;;;;;;;5.70;3.55;;;4.20;85.50;;;;;;5020180;28;20033;-67
2022/04/19 02:06:06;;;;;;;5.22;3.28;;;4.10;86.40;;;;;;5020621;28;20029;-67
2022/04/19 02:08:31;;;;;;;7.30;3.53;;;3.90;87.20;;;;;;5020661;28;20315;-67
2022/04/19 02:11:00;;;;;;;5.70;3.80;;;3.80;87.10;;;;;;5021588;28;20029;-67
2022/04/19 02:13:26;;;;;;;7.10;4.20;;;3.70;87.20;;;;;;5020251;28;20062;-67
2022/04/19 02:15:54;;;;;;;6.32;4.13;;;3.70;87.50;;;;;;5023751;28;20084;-67
2022/04/19 02:18:21;;;;;;;7.47;4.15;;;3.90;86.20;;;;;;5019467;28;20052;-68
2022/04/19 02:20:47;;;;;;;6.40;3.80;;;4.10;85.60;;;;;;5023000;28;20033;-67
2022/04/19 02:23:13;;;;;;;8.18;3.83;;;4.00;86.10;;;;;;5019814;28;20030;-67
2022/04/19 02:25:39;;;;;;;7.22;3.83;;;3.90;87.00;;;;;;5022219;28;20032;-67
2022/04/19 02:28:07;;;;;;;5.30;3.53;;;3.50;88.40;;;;;;5021451;28;20040;-67
2022/04/19 02:30:33;;;;;;;7.43;3.92;;;3.20;89.70;;;;;;5017100;28;20029;-67
2022/04/19 02:33:02;;;;;;;8.52;3.80;;;3.10;90.30;;;;;;5024377;28;20029;-67
2022/04/19 02:35:28;;;;;;;6.88;3.80;;;2.90;91.00;;;;;;5018643;28;20542;-66
2022/04/19 02:37:56;;;;;;;7.88;4.47;;;2.90;91.10;;;;;;5017850;28;20461;-67
2022/04/19 02:40:23;;;;;;;7.35;4.03;;;2.90;91.50;;;;;;5019370;28;20414;-67
2022/04/19 02:42:51;;;;;;;7.47;3.70;;;3.00;91.40;;;;;;5018415;28;20026;-67
2022/04/19 02:45:19;;;;;;;6.80;3.50;;;3.10;91.10;;;;;;5022978;28;20021;-66
2022/04/19 02:47:46;;;;;;;6.18;3.85;;;3.10;90.90;;;;;;5022010;28;20096;-67
2022/04/19 02:50:12;;;;;;;6.82;4.10;;;3.20;90.60;;;;;;5020353;28;20017;-67
2022/04/19 02:52:38;;;;;;;18.83;11.57;;;3.10;90.70;;;;;;5023110;28;20034;-67
2022/04/19 02:55:04;;;;;;;32.42;15.70;;;3.00;90.60;;;;;;5022322;28;20028;-67
2022/04/19 02:57:29;;;;;;;8.60;4.97;;;2.90;90.90;;;;;;5018351;28;20025;-67
2022/04/19 02:59:58;;;;;;;151.93;86.90;;;2.70;91.60;;;;;;5018666;28;20032;-67
2022/04/19 03:02:24;;;;;;;15.52;8.52;;;2.60;92.30;;;;;;5020765;28;20038;-67
2022/04/19 03:04:49;;;;;;;7.72;5.20;;;2.60;92.40;;;;;;5018998;28;20304;-68
2022/04/19 03:07:15;;;;;;;7.50;4.35;;;2.80;92.10;;;;;;5019477;28;20037;-68
2022/04/19 03:09:42;;;;;;;6.70;3.95;;;2.80;92.10;;;;;;5021514;28;20083;-67
2022/04/19 03:12:11;;;;;;;6.60;4.10;;;2.90;91.40;;;;;;5025257;28;20096;-68
2022/04/19 03:14:38;;;;;;;8.23;5.57;;;2.90;91.10;;;;;;5026551;28;20065;-67
2022/04/19 03:17:04;;;;;;;8.65;4.45;;;3.10;90.30;;;;;;5025058;28;20038;-66
2022/04/19 03:19:29;;;;;;;9.43;4.20;;;3.20;90.00;;;;;;5026458;28;20479;-66
2022/04/19 03:21:55;;;;;;;8.77;4.55;;;3.10;90.20;;;;;;5019808;28;20038;-66
2022/04/19 03:29:49;;;;;;;7.43;3.97;;;2.90;90.80;;;;;;5022796;28;20080;-67
2022/04/19 03:32:15;;;;;;;7.70;4.20;;;2.80;91.00;;;;;;5026161;28;20033;-68
2022/04/19 03:34:42;;;;;;;6.63;4.20;;;2.80;91.20;;;;;;5023441;28;20387;-68
2022/04/19 03:37:09;;;;;;;6.50;3.92;;;2.70;91.60;;;;;;5020498;28;20323;-67
2022/04/19 03:39:35;;;;;;;7.85;4.20;;;2.60;91.90;;;;;;5027176;28;20029;-67
2022/04/19 03:42:00;;;;;;;8.82;4.47;;;2.60;92.10;;;;;;5021752;28;21606;-67
2022/04/19 03:44:26;;;;;;;8.02;4.50;;;2.60;92.00;;;;;;5025513;28;20030;-67
2022/04/19 03:47:07;;;;;;;7.07;4.28;;;2.70;91.60;;;;;;5023174;28;20397;-67
2022/04/19 03:49:34;;;;;;;6.60;4.30;;;2.80;91.00;;;;;;5020679;28;21527;-67
2022/04/19 03:52:00;;;;;;;6.90;4.43;;;2.80;91.30;;;;;;5018370;28;20033;-67
2022/04/19 03:54:26;;;;;;;9.25;4.15;;;2.70;91.60;;;;;;5021554;28;20288;-68
2022/04/19 03:56:52;;;;;;;7.47;4.13;;;2.60;92.00;;;;;;5023062;28;20037;-67
2022/04/19 03:59:18;;;;;;;6.30;4.10;;;2.60;92.00;;;;;;5021448;28;20057;-67
2022/04/19 04:01:45;;;;;;;7.72;4.18;;;2.60;92.30;;;;;;5017373;28;20034;-67
2022/04/19 04:04:11;;;;;;;6.70;4.07;;;2.70;92.00;;;;;;5019788;28;20100;-68
2022/04/19 04:06:37;;;;;;;7.32;3.85;;;2.80;91.80;;;;;;5018931;28;20014;-67
2022/04/19 04:09:06;;;;;;;7.03;4.10;;;3.00;90.90;;;;;;5021070;28;20026;-67
2022/04/19 04:11:34;;;;;;;7.45;4.50;;;3.20;89.70;;;;;;5023872;28;20100;-67
2022/04/19 04:14:00;;;;;;;8.23;4.70;;;3.30;89.20;;;;;;5024095;28;20092;-67
2022/04/19 04:16:26;;;;;;;8.10;3.92;;;3.40;89.00;;;;;;5021728;28;20038;-67
2022/04/19 04:18:51;;;;;;;7.38;4.28;;;3.40;88.80;;;;;;5027295;28;20323;-67
2022/04/19 04:21:17;;;;;;;9.05;4.40;;;3.40;88.80;;;;;;5024375;28;20036;-68
2022/04/19 04:23:42;;;;;;;7.88;4.30;;;3.30;89.20;;;;;;5018808;28;20057;-68
2022/04/19 04:26:08;;;;;;;7.47;4.00;;;3.30;89.60;;;;;;5018789;28;20083;-68
2022/04/19 04:28:34;;;;;;;7.03;3.88;;;3.10;90.10;;;;;;5022184;28;20087;-67
2022/04/19 04:30:59;;;;;;;6.47;4.35;;;3.00;90.70;;;;;;5023657;28;20079;-67
2022/04/19 04:33:26;;;;;;;7.10;4.25;;;2.80;91.60;;;;;;5017999;28;20053;-67
2022/04/19 04:35:51;;;;;;;7.45;4.40;;;2.60;92.30;;;;;;5022742;28;20029;-67
2022/04/19 04:38:17;;;;;;;8.20;4.20;;;2.60;92.30;;;;;;5022603;28;20040;-68
2022/04/19 04:40:43;;;;;;;10.05;4.85;;;2.60;92.00;;;;;;5023171;28;20431;-67
2022/04/19 04:43:08;;;;;;;7.93;4.25;;;2.40;92.30;;;;;;5023341;28;20053;-67
2022/04/19 04:45:34;;;;;;;6.97;4.28;;;2.30;92.70;;;;;;5026234;28;20352;-67
2022/04/19 04:50:44;;;;;;;6.47;4.32;;;2.30;94.00;;;;;;5017923;28;20503;-67
2022/04/19 04:53:09;;;;;;;7.75;4.63;;;2.50;93.40;;;;;;5025184;28;20041;-69
2022/04/19 04:55:35;;;;;;;6.80;4.25;;;2.70;92.50;;;;;;5022597;28;20045;-67
2022/04/19 04:58:02;;;;;;;7.38;4.32;;;2.80;91.90;;;;;;5020649;28;20036;-67
2022/04/19 05:00:29;;;;;;;8.13;4.78;;;2.80;91.70;;;;;;5022001;28;20028;-67
2022/04/19 05:02:55;;;;;;;9.57;4.85;;;2.70;91.90;;;;;;5017872;28;20034;-67
2022/04/19 05:05:21;;;;;;;6.63;4.00;;;2.70;92.40;;;;;;5021074;28;20029;-68
2022/04/19 05:07:47;;;;;;;7.45;4.25;;;2.80;92.30;;;;;;5029010;28;20333;-67
2022/04/19 05:10:14;;;;;;;7.20;4.13;;;3.00;92.10;;;;;;5032175;28;20025;-66
2022/04/19 05:12:40;;;;;;;7.88;4.00;;;3.20;91.80;;;;;;5024605;28;20485;-67
2022/04/19 05:15:06;;;;;;;8.65;4.43;;;3.40;91.30;;;;;;5021281;28;20038;-67
2022/04/19 05:17:35;;;;;;;9.18;4.43;;;3.50;90.70;;;;;;5019475;28;20088;-67
2022/04/19 05:20:00;;;;;;;6.55;3.80;;;3.60;90.30;;;;;;5026371;28;20017;-67
2022/04/19 05:22:26;;;;;;;7.03;4.20;;;3.70;89.60;;;;;;5017504;28;20033;-67
2022/04/19 05:24:52;;;;;;;5.60;2.95;;;3.90;88.90;;;;;;5022973;28;20037;-67
2022/04/19 05:27:18;;;;;;;9.13;4.22;;;4.00;88.80;;;;;;5022154;28;20052;-66
2022/04/19 05:29:43;;;;;;;9.43;4.15;;;4.00;89.50;;;;;;5021894;28;20029;-66
2022/04/19 05:32:09;;;;;;;10.52;4.25;;;4.00;89.70;;;;;;5018167;28;20052;-68
2022/04/19 05:34:35;;;;;;;8.82;4.22;;;4.10;89.40;;;;;;5020251;28;20095;-68
2022/04/19 05:37:00;;;;;;;10.15;4.00;;;4.20;89.60;;;;;;5019260;28;20040;-67
2022/04/19 05:39:26;;;;;;;9.38;4.55;;;4.40;89.50;;;;;;5022496;28;20475;-66
2022/04/19 05:41:52;;;;;;;10.45;6.32;;;4.60;88.60;;;;;;5019724;28;20443;-67
2022/04/19 05:44:17;;;;;;;9.50;5.47;;;4.80;88.30;;;;;;5021482;28;20026;-68
2022/04/19 05:46:43;;;;;;;9.45;4.55;;;5.00;88.60;;;;;;5022980;28;20053;-68
2022/04/19 05:49:09;;;;;;;7.57;3.72;;;5.20;88.30;;;;;;5016672;28;20101;-68
2022/04/19 05:51:34;;;;;;;6.70;3.83;;;5.40;87.60;;;;;;5019618;28;20033;-67
2022/04/19 05:54:00;;;;;;;6.82;3.50;;;5.70;86.50;;;;;;5031875;28;20037;-68
2022/04/19 05:56:26;;;;;;;7.10;3.63;;;6.00;85.70;;;;;;5034046;28;20022;-68
2022/04/19 05:58:55;;;;;;;6.35;3.40;;;6.20;85.10;;;;;;5040123;28;20060;-68
2022/04/19 06:01:21;;;;;;;6.53;3.47;;;6.50;84.60;;;;;;5025409;28;20041;-68
2022/04/19 06:06:34;;;;;;;;;;;7.10;83.10;;;;;;5016235;28;20104;-67
2022/04/19 06:08:59;;;;;;;6.47;3.10;;;7.30;82.80;;;;;;5018820;28;20338;-68
2022/04/19 06:11:25;;;;;;;6.75;4.10;;;7.50;82.80;;;;;;5033261;28;20025;-66
2022/04/19 06:13:51;;;;;;;5.93;4.13;;;7.60;82.50;;;;;;5024410;28;20026;-66
2022/04/19 06:16:16;;;;;;;8.93;5.75;;;7.60;82.00;;;;;;5027713;28;20048;-67
2022/04/19 06:18:42;;;;;;;8.82;5.10;;;7.70;81.60;;;;;;5027043;28;20025;-67
2022/04/19 06:21:08;;;;;;;7.28;4.03;;;7.70;81.60;;;;;;5024383;28;20342;-69
2022/04/19 06:23:34;;;;;;;5.72;3.83;;;7.90;80.80;;;;;;5027883;28;20080;-69
2022/04/19 06:26:01;;;;;;;8.02;3.17;;;8.00;80.70;;;;;;5018362;28;20026;-68
2022/04/19 06:28:27;;;;;;;9.13;3.50;;;8.10;79.10;;;;;;5025912;28;20104;-68
2022/04/19 06:30:53;;;;;;;5.45;3.63;;;8.20;78.10;;;;;;5034207;28;20109;-68
2022/04/19 06:33:18;;;;;;;5.90;3.00;;;8.30;75.60;;;;;;5038329;28;20116;-68
2022/04/19 06:35:47;;;;;;;6.15;3.67;;;8.50;75.80;;;;;;5035779;28;20048;-69
2022/04/19 06:38:13;;;;;;;6.38;3.25;;;8.70;73.50;;;;;;5036215;28;20034;-69
2022/04/19 06:40:38;;;;;;;6.13;3.58;;;8.90;72.20;;;;;;5034176;28;20096;-69
2022/04/19 06:43:04;;;;;;;10.40;5.20;;;9.00;72.70;;;;;;5032218;28;20438;-68
2022/04/19 06:45:31;;;;;;;7.85;4.90;;;9.10;73.60;;;;;;5034431;28;20132;-69
2022/04/19 06:48:02;;;;;;;8.02;3.85;;;9.10;73.30;;;;;;5028546;28;20120;-68
2022/04/19 06:50:28;;;;;;;6.50;3.83;;;9.00;73.70;;;;;;5031184;28;20814;-69
2022/04/19 06:52:54;;;;;;;6.93;3.78;;;9.00;73.80;;;;;;5028000;28;20024;-68
2022/04/19 06:55:20;;;;;;;6.43;3.53;;;9.10;74.40;;;;;;5032204;28;20393;-68
2022/04/19 06:57:49;;;;;;;6.22;3.47;;;9.30;74.10;;;;;;5024069;28;20067;-68
2022/04/19 07:00:16;;;;;;;6.60;4.27;;;9.40;73.30;;;;;;5037360;28;20026;-68
2022/04/19 07:02:44;;;;;;;8.70;3.90;;;9.50;72.80;;;;;;5026578;28;20022;-67
2022/04/19 07:05:12;;;;;;;6.88;3.65;;;9.50;72.90;;;;;;5031712;28;20441;-68
2022/04/19 07:07:41;;;;;;;11.82;4.53;;;9.60;73.00;;;;;;5026392;28;20055;-67
2022/04/19 07:10:07;;;;;;;11.10;6.10;;;9.70;73.70;;;;;;5035743;28;20022;-68
2022/04/19 07:12:33;;;;;;;8.32;5.00;;;9.60;74.20;;;;;;5027950;28;20026;-68
2022/04/19 07:15:01;;;;;;;8.55;4.68;;;9.60;74.30;;;;;;5039123;28;20075;-68
2022/04/19 07:17:27;;;;;;;8.32;4.47;;;9.60;74.30;;;;;;5025168;28;20386;-68
2022/04/19 07:28:14;;;;;;;7.95;4.50;;;9.90;72.50;;;;;;5036788;28;20125;-68
2022/04/19 07:30:39;;;;;;;7.97;4.82;;;10.00;72.50;;;;;;5038901;28;20027;-68
2022/04/19 07:33:05;;;;;;;7.53;4.50;;;10.10;71.10;;;;;;5038786;28;20033;-68
2022/04/19 07:35:31;;;;;;;9.75;5.00;;;10.20;70.40;;;;;;5033770;28;20415;-68
2022/04/19 07:37:57;;;;;;;9.25;4.68;;;10.30;70.90;;;;;;5037704;28;20068;-68
2022/04/19 07:40:22;;;;;;;7.88;4.50;;;10.50;68.80;;;;;;5037775;28;20029;-68
2022/04/19 07:42:48;;;;;;;9.43;4.95;;;10.60;68.50;;;;;;5038619;28;20025;-68
2022/04/19 07:45:15;;;;;;;9.73;5.38;;;10.80;67.30;;;;;;5038762;28;20041;-68
2022/04/19 07:47:41;;;;;;;8.38;4.80;;;11.00;68.20;;;;;;5025152;28;20042;-68
2022/04/19 07:50:07;;;;;;;8.05;4.78;;;11.00;67.50;;;;;;5030712;28;20026;-67
2022/04/19 07:52:32;;;;;;;8.20;4.82;;;11.20;67.40;;;;;;5050932;28;20037;-68
2022/04/19 07:54:58;;;;;;;8.60;4.47;;;11.80;67.10;;;;;;5048471;28;20021;-68
2022/04/19 07:57:26;;;;;;;7.85;4.10;;;12.70;65.10;;;;;;5018669;28;20080;-68
2022/04/19 07:59:54;;;;;;;6.85;3.70;;;13.80;63.20;;;;;;5023281;28;20025;-68
2022/04/19 08:02:20;;;;;;;7.97;3.92;;;15.00;62.40;;;;;;5026906;28;20292;-68
2022/04/19 08:04:46;;;;;;;6.97;3.15;;;16.10;57.70;;;;;;5038301;28;20021;-68
2022/04/19 08:07:12;;;;;;;6.15;3.53;;;16.90;56.10;;;;;;5022638;28;20041;-68
2022/04/19 08:09:39;;;;;;;6.95;3.67;;;17.10;56.20;;;;;;5018450;28;20030;-68
2022/04/19 08:12:08;;;;;;;6.55;4.10;;;16.90;55.80;;;;;;5022629;28;20415;-67
2022/04/19 08:14:34;;;;;;;6.68;3.72;;;16.50;56.20;;;;;;5037963;28;20045;-69
2022/04/19 08:17:00;;;;;;;8.13;4.63;;;17.20;56.40;;;;;;5027361;28;20087;-68
2022/04/19 08:19:26;;;;;;;7.03;4.30;;;17.80;55.00;;;;;;5018096;28;20029;-69
2022/04/19 08:21:51;;;;;;;7.40;4.18;;;17.70;53.10;;;;;;5016175;28;20109;-69
2022/04/19 08:24:18;;;;;;;7.47;4.05;;;18.20;52.90;;;;;;5018100;28;20033;-68
2022/04/19 08:26:44;;;;;;;5.82;3.72;;;18.80;52.50;;;;;;5022349;28;20025;-69
2022/04/19 08:29:11;;;;;;;7.05;3.88;;;19.20;52.40;;;;;;5029895;28;20104;-67
2022/04/19 08:31:37;;;;;;;6.90;4.10;;;19.60;50.10;;;;;;5025159;28;20026;-68
2022/04/19 08:34:03;;;;;;;7.43;4.07;;;19.90;48.50;;;;;;5033045;28;20086;-67
2022/04/19 08:36:28;;;;;;;7.28;4.28;;;20.50;48.30;;;;;;5016274;28;20415;-67
2022/04/19 08:38:54;;;;;;;7.45;4.20;;;20.00;48.30;;;;;;5031281;28;20022;-68
2022/04/19 08:41:21;;;;;;;8.30;4.65;;;19.70;48.80;;;;;;5037501;28;20040;-67
2022/04/19 08:43:47;;;;;;;9.23;4.95;;;19.50;50.00;;;;;;5037377;28;20030;-68
2022/04/19 08:46:14;;;;;;;7.35;4.50;;;19.80;48.30;;;;;;5034688;28;20040;-67
2022/04/19 08:48:44;;;;;;;7.93;4.75;;;20.00;48.00;;;;;;5036139;28;20025;-67
2022/04/19 08:51:12;;;;;;;9.00;4.50;;;19.10;49.20;;;;;;5030080;28;20373;-66
2022/04/19 08:59:06;;;;;;;7.28;4.43;;;18.60;49.80;;;;;;5055129;28;19915;-67
2022/04/19 09:01:34;;;;;;;8.40;4.35;;;18.50;50.20;;;;;;5050623;28;20038;-66
2022/04/19 09:04:04;;;;;;;7.35;4.43;;;18.30;49.60;;;;;;5033615;28;20018;-66
2022/04/19 09:06:54;;;;;;;7.57;4.43;;;19.20;49.20;;;;;;5017076;28;20069;-66
2022/04/19 09:09:24;;;;;;;7.00;4.35;;;20.60;46.90;;;;;;5031384;28;20045;-65
2022/04/19 09:11:51;;;;;;;6.90;4.40;;;21.10;47.40;;;;;;5033035;28;20032;-65
2022/04/19 09:14:17;;;;;;;7.38;3.90;;;21.60;46.10;;;;;;5020547;28;20450;-65
2022/04/19 09:16:45;;;;;;;6.45;3.50;;;21.70;44.70;;;;;;5020055;28;20061;-70
2022/04/19 09:19:25;;;;;;;5.82;3.90;;;21.40;47.70;;;;;;5024722;28;20026;-68
2022/04/19 09:21:54;;;;;;;7.60;4.05;;;21.60;46.60;;;;;;5023724;28;20041;-67
2022/04/19 09:24:21;;;;;;;6.50;3.85;;;21.50;46.50;;;;;;5035836;28;20176;-68
2022/04/19 09:26:52;;;;;;;8.45;4.43;;;20.30;47.10;;;;;;5020760;28;20026;-68
2022/04/19 09:29:19;;;;;;;6.85;4.03;;;20.20;47.80;;;;;;5035942;28;20107;-68
2022/04/19 09:31:45;;;;;;;6.65;3.70;;;20.30;48.50;;;;;;5032416;28;20036;-67
2022/04/19 09:34:21;;;;;;;7.93;3.92;;;19.80;48.40;;;;;;5021145;28;20107;-67
2022/04/19 09:36:53;;;;;;;7.20;3.63;;;19.00;49.60;;;;;;5017616;28;20026;-68
2022/04/19 09:39:27;;;;;;;8.13;4.10;;;19.50;50.00;;;;;;5021683;28;20049;-67
2022/04/19 09:42:14;;;;;;;8.20;3.40;;;20.30;49.10;;;;;;5025735;28;20113;-67
2022/04/19 09:44:49;;;;;;;6.75;3.85;;;20.10;49.10;;;;;;5027127;28;20076;-68
2022/04/19 09:47:15;;;;;;;7.13;3.85;;;20.30;49.30;;;;;;5027359;28;20033;-68
2022/04/19 09:49:46;;;;;;;9.18;3.78;;;19.70;49.20;;;;;;5035265;28;20085;-67
2022/04/19 09:52:34;;;;;;;7.07;3.85;;;19.70;48.50;;;;;;5029285;28;20064;-67
2022/04/19 09:55:10;;;;;;;6.00;3.55;;;19.60;49.60;;;;;;5022137;28;20045;-67
2022/04/19 09:57:38;;;;;;;6.10;3.00;;;19.90;47.80;;;;;;5020923;28;20021;-67
2022/04/19 10:00:07;;;;;;;6.20;3.03;;;19.60;50.20;;;;;;5017359;28;20040;-66
2022/04/19 10:08:11;;;;;;;6.20;2.78;;;20.80;45.70;;;;;;5020713;28;20040;-68
2022/04/19 10:10:41;;;;;;;5.03;2.60;;;20.40;48.10;;;;;;5023050;28;20467;-67
2022/04/19 10:13:07;;;;;;;6.13;2.80;;;20.40;45.90;;;;;;5016644;28;20029;-67
2022/04/19 10:15:36;;;;;;;5.68;2.60;;;19.90;46.90;;;;;;5043856;28;20525;-66
2022/04/19 10:18:06;;;;;;;6.38;3.13;;;19.70;47.70;;;;;;5021169;28;20043;-67
2022/04/19 10:20:36;;;;;;;5.53;2.72;;;20.00;46.80;;;;;;5026181;28;20025;-66
2022/04/19 10:23:08;;;;;;;7.25;2.22;;;20.20;46.70;;;;;;5024646;28;20032;-68
2022/04/19 10:25:44;;;;;;;5.57;2.47;;;20.10;45.20;;;;;;5021281;28;20461;-67
2022/04/19 10:28:15;;;;;;;4.28;2.15;;;20.30;46.50;;;;;;5017343;28;20407;-67
2022/04/19 10:30:52;;;;;;;5.82;2.85;;;20.20;46.60;;;;;;5017748;28;20029;-67
2022/04/19 10:33:49;;;;;;;4.72;2.08;;;20.20;47.10;;;;;;5022530;28;20038;-67
2022/04/19 10:36:34;;;;;;;4.40;2.00;;;20.20;46.00;;;;;;5015087;28;20037;-67
2022/04/19 10:39:12;;;;;;;4.53;2.20;;;20.20;45.00;;;;;;5021773;28;20037;-67
2022/04/19 10:41:53;;;;;;;4.72;2.40;;;19.80;47.60;;;;;;5021614;28;20061;-67
2022/04/19 10:44:21;;;;;;;4.20;2.22;;;20.30;46.70;;;;;;5022258;28;20104;-67
2022/04/19 10:46:46;;;;;;;4.88;2.45;;;19.70;46.60;;;;;;5020363;28;20429;-67
2022/04/19 10:49:25;;;;;;;7.03;2.85;;;19.60;47.00;;;;;;5025181;28;20094;-67
2022/04/19 10:51:52;;;;;;;5.13;2.60;;;20.10;47.10;;;;;;5020633;28;20037;-67
2022/04/19 10:54:57;;;;;;;5.05;2.75;;;20.70;46.00;;;;;;5019431;28;20316;-66
2022/04/19 11:00:31;;;;;;;8.87;4.07;;;20.40;47.00;;;;;;5018949;28;20353;-67
2022/04/19 11:03:00;;;;;;;7.95;3.30;;;19.90;48.80;;;;;;5020113;28;20303;-67
2022/04/19 11:05:42;;;;;;;6.60;3.50;;;19.40;48.90;;;;;;5015762;28;20034;-67
2022/04/19 11:08:26;;;;;;;5.75;3.17;;;19.70;49.30;;;;;;5017111;28;20030;-67
2022/04/19 11:11:21;;;;;;;6.00;3.28;;;20.00;49.80;;;;;;5019513;28;20038;-67
2022/04/19 11:14:05;;;;;;;;;;;19.70;48.90;;;;;;5020888;28;20030;-67
2022/04/19 11:16:39;;;;;;;6.53;3.95;;;19.60;50.30;;;;;;5025664;28;19931;-67
2022/04/19 11:19:15;;;;;;;5.82;3.17;;;19.50;51.00;;;;;;5025661;28;20718;-69
2022/04/19 11:21:54;;;;;;;8.25;3.60;;;18.90;51.80;;;;;;5025448;28;20037;-67
2022/04/19 11:24:57;;;;;;;5.68;3.47;;;18.70;51.50;;;;;;5027009;28;20021;-66
2022/04/19 11:27:25;;;;;;;6.85;3.40;;;18.90;51.30;;;;;;5023642;28;20440;-67
2022/04/19 11:29:51;;;;;;;6.50;3.47;;;18.70;50.50;;;;;;5027301;28;20028;-66
2022/04/19 11:32:25;;;;;;;5.72;3.17;;;18.40;52.00;;;;;;5025678;28;20136;-67
2022/04/19 11:35:01;;;;;;;6.15;3.38;;;18.40;52.80;;;;;;5026232;28;20030;-67
2022/04/19 11:37:31;;;;;;;5.55;3.50;;;18.70;52.60;;;;;;5031692;28;20018;-67
2022/04/19 11:48:30;;;;;;;10.35;4.22;;;19.10;50.90;;;;;;5018818;28;20482;-67
2022/04/19 11:51:10;;;;;;;7.03;3.53;;;18.80;51.80;;;;;;5027660;28;20069;-67
2022/04/19 11:53:36;;;;;;;6.32;3.45;;;18.90;52.50;;;;;;5040410;28;20491;-67
2022/04/19 11:56:04;;;;;;;7.10;4.20;;;19.10;51.40;;;;;;5057556;28;20025;-66
2022/04/19 11:58:31;;;;;;;6.75;3.90;;;19.20;51.60;;;;;;5046763;28;20036;-66
2022/04/19 12:01:03;;;;;;;7.07;3.60;;;19.20;51.40;;;;;;5029255;28;20084;-66
2022/04/19 12:03:36;;;;;;;6.82;3.72;;;19.30;51.50;;;;;;5029968;28;20037;-66
2022/04/19 12:06:15;;;;;;;7.57;3.92;;;19.30;50.30;;;;;;5036415;28;20029;-66
2022/04/19 12:08:44;;;;;;;6.47;3.78;;;19.60;48.90;;;;;;5018412;28;20106;-65
2022/04/19 12:11:13;;;;;;;6.78;3.90;;;19.60;48.30;;;;;;5032948;28;20038;-68
2022/04/19 12:13:42;;;;;;;9.50;4.78;;;19.50;49.80;;;;;;5031732;28;20026;-67
2022/04/19 12:16:33;;;;;;;6.57;4.15;;;18.80;50.00;;;;;;5026646;28;20132;-66
2022/04/19 12:19:01;;;;;;;9.30;4.18;;;18.30;51.70;;;;;;5034646;28;20037;-67
2022/04/19 12:21:39;;;;;;;7.18;3.92;;;18.30;52.50;;;;;;5017366;28;20323;-67
2022/04/19 12:24:08;;;;;;;7.95;4.25;;;18.60;53.40;;;;;;5025090;28;20022;-67
2022/04/19 12:26:35;;;;;;;6.88;4.05;;;19.30;51.20;;;;;;5036109;28;20021;-67
2022/04/19 12:29:11;;;;;;;6.35;3.90;;;19.80;49.80;;;;;;5018068;28;20022;-67
2022/04/19 12:31:39;;;;;;;8.73;4.20;;;20.00;49.70;;;;;;5017838;28;20038;-67
2022/04/19 12:34:06;;;;;;;6.80;3.83;;;19.80;48.40;;;;;;5024375;28;20048;-66
2022/04/19 12:36:41;;;;;;;6.78;3.63;;;19.20;50.40;;;;;;5029189;28;20147;-67
2022/04/19 12:39:07;;;;;;;6.82;3.95;;;19.40;49.30;;;;;;5037627;28;20029;-67
2022/04/19 12:41:44;;;;;;;6.95;4.00;;;19.00;49.90;;;;;;5037442;28;20437;-67
2022/04/19 12:44:16;;;;;;;8.32;4.90;;;18.60;50.80;;;;;;5033318;28;20063;-66
2022/04/19 12:46:48;;;;;;;8.50;4.30;;;18.60;50.30;;;;;;5032597;28;20037;-66
2022/04/19 12:49:29;;;;;;;8.30;4.20;;;18.70;51.00;;;;;;5034917;28;20155;-66
2022/04/19 12:52:04;;;;;;;8.70;4.78;;;19.50;51.10;;;;;;5029550;28;20026;-67
2022/04/19 12:54:35;;;;;;;9.10;4.38;;;19.80;50.40;;;;;;5028838;28;20030;-68
2022/04/19 12:57:03;;;;;;;7.40;4.18;;;19.70;47.90;;;;;;5022522;28;20075;-67
2022/04/19 12:59:33;;;;;;;6.68;3.80;;;19.40;48.50;;;;;;5029543;28;20495;-67
2022/04/19 13:02:00;;;;;;;9.65;5.13;;;19.50;52.00;;;;;;5022085;28;20088;-66
2022/04/19 13:04:26;;;;;;;7.57;4.20;;;20.00;47.80;;;;;;5029983;28;20022;-66
2022/04/19 13:12:26;;;;;;;8.52;4.75;;;20.40;47.90;;;;;;5031603;28;20088;-67
2022/04/19 13:14:54;;;;;;;9.15;4.40;;;19.70;47.40;;;;;;5021414;28;20056;-65
2022/04/19 13:17:21;;;;;;;8.90;4.88;;;19.30;49.30;;;;;;5030592;28;20105;-65
2022/04/19 13:19:47;;;;;;;8.43;4.47;;;19.50;48.10;;;;;;5028424;28;20018;-67
2022/04/19 13:22:14;;;;;;;7.45;4.47;;;19.70;48.90;;;;;;5026430;28;20323;-66
2022/04/19 13:24:41;;;;;;;8.00;4.63;;;19.80;48.80;;;;;;5017043;28;20026;-67
2022/04/19 13:27:08;;;;;;;8.38;5.03;;;19.80;48.60;;;;;;5037531;28;20111;-66
2022/04/19 13:29:35;;;;;;;8.40;4.85;;;20.00;47.90;;;;;;5040178;28;20013;-67
2022/04/19 13:32:01;;;;;;;8.45;4.75;;;20.40;47.10;;;;;;5036586;28;20160;-67
2022/04/19 13:34:27;;;;;;;8.40;4.60;;;20.70;48.50;;;;;;5031358;28;20029;-66
2022/04/19 13:36:57;;;;;;;7.65;4.22;;;20.50;45.70;;;;;;5027058;28;20033;-66
2022/04/19 13:39:24;;;;;;;8.30;3.92;;;20.00;47.70;;;;;;5032847;28;20052;-67
2022/04/19 13:41:50;;;;;;;7.75;4.50;;;19.80;46.80;;;;;;5033294;28;20430;-67
2022/04/19 13:44:17;;;;;;;7.45;4.35;;;20.20;47.20;;;;;;5033012;28;20025;-67
2022/04/19 13:46:44;;;;;;;6.55;3.50;;;21.10;46.00;;;;;;5029614;28;20117;-67
2022/04/19 13:49:12;;;;;;;8.35;4.20;;;21.40;46.30;;;;;;5028041;28;20026;-66